Terminal Aerodrome Forecast
Issued by NWS Charleston, WV

Home | Current Version | Previous Version | Text Only | Print | Product List | Glossary On
Versions: 1 2 3 4 5 6 7 8 9 10 11 12 13 14 15 16 17 18 19 20 21 22 23 24 25 26
000
FTUS41 KRLX 140910 AAA
TAFBKW
TAF AMD
KBKW 140910Z 1409/1506 25017G26KT P6SM OVC045
     FM141030 27017G32KT P6SM BKN030
     FM141500 31013G20KT P6SM BKN020
     FM141700 31008KT P6SM BKN030
     FM142200 31004KT P6SM BKN035=

USA.gov is the U.S. government's official web portal to all federal, state and local government web resources and services.